ANA541 RJOO-RJFK
Flight info
| Callsign | ANA541 |
|---|---|
| Flight time | 0h 52m |
| Altitude | 28000 |
| Route | TIGER MAIKO AWAJI Y232 KRE Y756 VIRUD Y757 SPICA |
| Aircraft | B77W/H-SDE1E2E3FGHIJ2J3J4J5M1RWXY/LB1D1 |
Departure
| Time | 2026-04-27 12:22 |
|---|---|
| Airport | Osaka Itami International Airport (RJOO) |
Arrival
| Time | 2026-04-27 13:14 |
|---|---|
| Airport | Kagoshima Airport (RJFK) |
| Time | Latitude | Longitude | Altitude | Speed | Heading |
|---|---|---|---|---|---|
| 2026-04-27 11:42 | 34.78811 | 135.44270 | 53 ft | 0 kts | 67° |
| 2026-04-27 12:10 | 34.78809 | 135.44265 | 49 ft | 2 kts | 67° |
| 2026-04-27 12:10 | 34.78803 | 135.44246 | 49 ft | 2 kts | 67° |
| 2026-04-27 12:11 | 34.78796 | 135.44227 | 46 ft | 2 kts | 67° |
| 2026-04-27 12:11 | 34.78790 | 135.44209 | 48 ft | 2 kts | 68° |
| 2026-04-27 12:11 | 34.78784 | 135.44190 | 48 ft | 2 kts | 69° |
| 2026-04-27 12:11 | 34.78778 | 135.44171 | 47 ft | 2 kts | 76° |
| 2026-04-27 12:12 | 34.78775 | 135.44151 | 46 ft | 2 kts | 91° |
| 2026-04-27 12:12 | 34.78776 | 135.44131 | 46 ft | 2 kts | 98° |
| 2026-04-27 12:12 | 34.78779 | 135.44112 | 46 ft | 2 kts | 103° |
| 2026-04-27 12:12 | 34.78783 | 135.44092 | 46 ft | 2 kts | 108° |
| 2026-04-27 12:13 | 34.78789 | 135.44073 | 48 ft | 2 kts | 118° |
| 2026-04-27 12:13 | 34.78793 | 135.44065 | 47 ft | 1 kts | 128° |
| 2026-04-27 12:15 | 34.78792 | 135.44067 | 47 ft | 1 kts | 128° |
| 2026-04-27 12:15 | 34.78780 | 135.44082 | 46 ft | 4 kts | 135° |
| 2026-04-27 12:16 | 34.78753 | 135.44114 | 47 ft | 7 kts | 136° |
| 2026-04-27 12:16 | 34.78715 | 135.44159 | 47 ft | 8 kts | 135° |
| 2026-04-27 12:16 | 34.78671 | 135.44203 | 49 ft | 8 kts | 156° |
| 2026-04-27 12:16 | 34.78611 | 135.44203 | 52 ft | 9 kts | 182° |
| 2026-04-27 12:17 | 34.78556 | 135.44231 | 47 ft | 8 kts | 141° |
| 2026-04-27 12:17 | 34.78520 | 135.44272 | 48 ft | 7 kts | 136° |
| 2026-04-27 12:17 | 34.78481 | 135.44314 | 50 ft | 8 kts | 144° |
| 2026-04-27 12:17 | 34.78429 | 135.44333 | 52 ft | 9 kts | 175° |
| 2026-04-27 12:18 | 34.78364 | 135.44335 | 54 ft | 10 kts | 179° |
| 2026-04-27 12:18 | 34.78289 | 135.44335 | 53 ft | 11 kts | 180° |
| 2026-04-27 12:18 | 34.78207 | 135.44335 | 52 ft | 12 kts | 176° |
| 2026-04-27 12:18 | 34.78157 | 135.44362 | 48 ft | 12 kts | 143° |
| 2026-04-27 12:19 | 34.78096 | 135.44434 | 48 ft | 12 kts | 135° |
| 2026-04-27 12:19 | 34.78035 | 135.44506 | 47 ft | 12 kts | 135° |
| 2026-04-27 12:19 | 34.77975 | 135.44579 | 49 ft | 12 kts | 135° |
| 2026-04-27 12:19 | 34.77914 | 135.44652 | 47 ft | 12 kts | 135° |
| 2026-04-27 12:20 | 34.77854 | 135.44725 | 52 ft | 12 kts | 135° |
| 2026-04-27 12:20 | 34.77794 | 135.44797 | 52 ft | 12 kts | 135° |
| 2026-04-27 12:20 | 34.77734 | 135.44870 | 50 ft | 12 kts | 137° |
| 2026-04-27 12:20 | 34.77662 | 135.44928 | 51 ft | 12 kts | 153° |
| 2026-04-27 12:21 | 34.77585 | 135.44974 | 49 ft | 12 kts | 154° |
| 2026-04-27 12:21 | 34.77506 | 135.45015 | 51 ft | 12 kts | 166° |
| 2026-04-27 12:21 | 34.77436 | 135.44973 | 51 ft | 12 kts | 249° |
| 2026-04-27 12:21 | 34.77471 | 135.44880 | 48 ft | 13 kts | 314° |
| 2026-04-27 12:22 | 34.77674 | 135.44634 | 48 ft | 83 kts | 315° |
| 2026-04-27 12:22 | 34.78287 | 135.43888 | 53 ft | 162 kts | 315° |
| 2026-04-27 12:22 | 34.79124 | 135.42880 | 715 ft | 168 kts | 314° |
| 2026-04-27 12:22 | 34.79697 | 135.41641 | 1451 ft | 174 kts | 278° |
| 2026-04-27 12:23 | 34.79646 | 135.40130 | 2118 ft | 189 kts | 258° |
| 2026-04-27 12:23 | 34.79108 | 135.38552 | 2456 ft | 219 kts | 241° |
| 2026-04-27 12:23 | 34.78248 | 135.36848 | 2777 ft | 251 kts | 238° |
| 2026-04-27 12:23 | 34.77309 | 135.35060 | 3737 ft | 256 kts | 238° |
| 2026-04-27 12:24 | 34.76334 | 135.33200 | 4820 ft | 259 kts | 240° |
| 2026-04-27 12:24 | 34.75371 | 135.31346 | 5770 ft | 264 kts | 240° |
| 2026-04-27 12:24 | 34.74387 | 135.29436 | 6728 ft | 270 kts | 241° |
| 2026-04-27 12:24 | 34.73386 | 135.27485 | 7660 ft | 272 kts | 240° |
| 2026-04-27 12:25 | 34.72383 | 135.25520 | 8622 ft | 275 kts | 240° |
| 2026-04-27 12:25 | 34.71369 | 135.23527 | 9551 ft | 280 kts | 240° |
| 2026-04-27 12:25 | 34.70581 | 135.21980 | 10247 ft | 283 kts | 240° |
| 2026-04-27 12:25 | 34.69520 | 135.19891 | 10829 ft | 302 kts | 240° |
| 2026-04-27 12:26 | 34.68361 | 135.17600 | 11080 ft | 334 kts | 241° |
| 2026-04-27 12:26 | 34.67220 | 135.15031 | 11542 ft | 353 kts | 245° |
| 2026-04-27 12:26 | 34.66140 | 135.12317 | 12598 ft | 358 kts | 246° |
| 2026-04-27 12:26 | 34.65021 | 135.09615 | 13864 ft | 359 kts | 241° |
| 2026-04-27 12:27 | 34.63549 | 135.07136 | 14978 ft | 364 kts | 232° |
| 2026-04-27 12:27 | 34.61788 | 135.04895 | 16058 ft | 370 kts | 227° |
| 2026-04-27 12:27 | 34.59795 | 135.02871 | 17094 ft | 376 kts | 223° |
| 2026-04-27 12:27 | 34.57722 | 135.00874 | 18076 ft | 383 kts | 223° |
| 2026-04-27 12:28 | 34.55622 | 134.98865 | 18961 ft | 387 kts | 223° |
| 2026-04-27 12:28 | 34.53507 | 134.96841 | 19936 ft | 388 kts | 224° |
| 2026-04-27 12:28 | 34.51413 | 134.94831 | 20870 ft | 390 kts | 225° |
| 2026-04-27 12:28 | 34.49251 | 134.92747 | 21761 ft | 394 kts | 225° |
| 2026-04-27 12:29 | 34.47130 | 134.90699 | 22589 ft | 397 kts | 225° |
| 2026-04-27 12:29 | 34.44959 | 134.88603 | 23406 ft | 400 kts | 226° |
| 2026-04-27 12:29 | 34.42744 | 134.86465 | 24129 ft | 403 kts | 226° |
| 2026-04-27 12:29 | 34.40572 | 134.84368 | 24833 ft | 406 kts | 226° |
| 2026-04-27 12:30 | 34.38363 | 134.82238 | 25632 ft | 406 kts | 227° |
| 2026-04-27 12:30 | 34.36164 | 134.80123 | 26644 ft | 401 kts | 227° |
| 2026-04-27 12:30 | 34.33994 | 134.78034 | 27560 ft | 399 kts | 228° |
| 2026-04-27 12:30 | 34.31823 | 134.75942 | 27991 ft | 399 kts | 228° |
| 2026-04-27 12:31 | 34.29654 | 134.73855 | 27974 ft | 397 kts | 228° |
| 2026-04-27 12:31 | 34.27568 | 134.71719 | 27977 ft | 389 kts | 232° |
| 2026-04-27 12:31 | 34.25666 | 134.69420 | 27968 ft | 385 kts | 236° |
| 2026-04-27 12:31 | 34.23942 | 134.66950 | 27976 ft | 384 kts | 238° |
| 2026-04-27 12:32 | 34.22228 | 134.64464 | 27964 ft | 386 kts | 238° |
| 2026-04-27 12:32 | 34.20486 | 134.61947 | 27978 ft | 397 kts | 238° |
| 2026-04-27 12:32 | 34.18684 | 134.59347 | 27982 ft | 410 kts | 237° |
| 2026-04-27 12:32 | 34.16824 | 134.56670 | 27980 ft | 422 kts | 237° |
| 2026-04-27 12:33 | 34.14912 | 134.53928 | 27974 ft | 432 kts | 237° |
| 2026-04-27 12:33 | 34.12953 | 134.51126 | 27971 ft | 440 kts | 237° |
| 2026-04-27 12:33 | 34.10987 | 134.48320 | 27973 ft | 445 kts | 236° |
| 2026-04-27 12:33 | 34.08987 | 134.45471 | 27966 ft | 444 kts | 236° |
| 2026-04-27 12:34 | 34.06992 | 134.42633 | 27960 ft | 443 kts | 236° |
| 2026-04-27 12:34 | 34.05001 | 134.39799 | 27965 ft | 442 kts | 236° |
| 2026-04-27 12:34 | 34.03016 | 134.36973 | 27970 ft | 441 kts | 237° |
| 2026-04-27 12:34 | 34.01036 | 134.34150 | 27973 ft | 441 kts | 236° |
| 2026-04-27 12:35 | 33.99050 | 134.31320 | 27977 ft | 442 kts | 236° |
| 2026-04-27 12:35 | 33.97060 | 134.28489 | 27990 ft | 442 kts | 236° |
| 2026-04-27 12:35 | 33.95069 | 134.25659 | 27991 ft | 443 kts | 236° |
| 2026-04-27 12:35 | 33.93071 | 134.22820 | 27985 ft | 444 kts | 236° |
| 2026-04-27 12:36 | 33.91071 | 134.19987 | 27998 ft | 445 kts | 236° |
| 2026-04-27 12:36 | 33.89059 | 134.17136 | 27982 ft | 447 kts | 236° |
| 2026-04-27 12:36 | 33.87050 | 134.14284 | 27990 ft | 447 kts | 236° |
| 2026-04-27 12:36 | 33.85036 | 134.11429 | 27989 ft | 448 kts | 236° |
| 2026-04-27 12:37 | 33.83019 | 134.08572 | 27994 ft | 448 kts | 236° |
| 2026-04-27 12:37 | 33.80997 | 134.05711 | 28000 ft | 449 kts | 236° |
| 2026-04-27 12:37 | 33.78976 | 134.02856 | 28007 ft | 448 kts | 236° |
| 2026-04-27 12:37 | 33.76954 | 133.99999 | 27984 ft | 449 kts | 236° |
| 2026-04-27 12:38 | 33.74932 | 133.97141 | 27985 ft | 448 kts | 236° |
| 2026-04-27 12:38 | 33.72912 | 133.94292 | 27978 ft | 448 kts | 236° |
| 2026-04-27 12:38 | 33.70894 | 133.91449 | 27981 ft | 447 kts | 236° |
| 2026-04-27 12:38 | 33.68492 | 133.88069 | 27979 ft | 447 kts | 236° |
| 2026-04-27 12:39 | 33.66472 | 133.85226 | 27963 ft | 447 kts | 236° |
| 2026-04-27 12:39 | 33.64471 | 133.82374 | 27969 ft | 446 kts | 237° |
| 2026-04-27 12:39 | 33.62507 | 133.79488 | 27962 ft | 446 kts | 237° |
| 2026-04-27 12:39 | 33.60563 | 133.76596 | 27959 ft | 445 kts | 237° |
| 2026-04-27 12:40 | 33.59282 | 133.74687 | 27963 ft | 444 kts | 237° |
| 2026-04-27 12:40 | 33.57341 | 133.71798 | 27965 ft | 445 kts | 237° |
| 2026-04-27 12:40 | 33.55398 | 133.68911 | 27963 ft | 445 kts | 237° |
| 2026-04-27 12:40 | 33.53448 | 133.66024 | 27969 ft | 446 kts | 237° |
| 2026-04-27 12:41 | 33.51494 | 133.63140 | 27969 ft | 446 kts | 237° |
| 2026-04-27 12:41 | 33.49536 | 133.60256 | 27967 ft | 446 kts | 237° |
| 2026-04-27 12:41 | 33.47572 | 133.57368 | 27963 ft | 447 kts | 237° |
| 2026-04-27 12:41 | 33.45609 | 133.54485 | 27969 ft | 447 kts | 237° |
| 2026-04-27 12:42 | 33.43641 | 133.51596 | 27977 ft | 447 kts | 237° |
| 2026-04-27 12:42 | 33.41672 | 133.48708 | 27958 ft | 447 kts | 237° |
| 2026-04-27 12:42 | 33.39705 | 133.45825 | 27973 ft | 448 kts | 237° |
| 2026-04-27 12:42 | 33.37735 | 133.42939 | 27970 ft | 448 kts | 237° |
| 2026-04-27 12:43 | 33.35763 | 133.40054 | 27970 ft | 448 kts | 237° |
| 2026-04-27 12:43 | 33.33788 | 133.37166 | 27968 ft | 448 kts | 237° |
| 2026-04-27 12:43 | 33.31812 | 133.34278 | 27967 ft | 449 kts | 236° |
| 2026-04-27 12:43 | 33.29835 | 133.31391 | 27971 ft | 449 kts | 236° |
| 2026-04-27 12:44 | 33.27857 | 133.28504 | 27976 ft | 449 kts | 236° |
| 2026-04-27 12:44 | 33.25876 | 133.25616 | 27973 ft | 449 kts | 236° |
| 2026-04-27 12:44 | 33.23895 | 133.22731 | 27970 ft | 450 kts | 236° |
| 2026-04-27 12:44 | 33.21936 | 133.19876 | 27973 ft | 450 kts | 236° |
| 2026-04-27 12:45 | 33.19952 | 133.16992 | 27975 ft | 450 kts | 236° |
| 2026-04-27 12:45 | 33.17934 | 133.14070 | 27988 ft | 451 kts | 235° |
| 2026-04-27 12:45 | 33.15809 | 133.11290 | 27975 ft | 456 kts | 231° |
| 2026-04-27 12:45 | 33.13524 | 133.08731 | 27984 ft | 457 kts | 229° |
| 2026-04-27 12:46 | 33.11186 | 133.06146 | 27983 ft | 457 kts | 229° |
| 2026-04-27 12:46 | 33.08857 | 133.03559 | 27982 ft | 458 kts | 229° |
| 2026-04-27 12:46 | 33.06527 | 133.00961 | 27972 ft | 458 kts | 229° |
| 2026-04-27 12:46 | 33.04200 | 132.98363 | 27971 ft | 458 kts | 229° |
| 2026-04-27 12:47 | 33.01873 | 132.95765 | 27974 ft | 458 kts | 229° |
| 2026-04-27 12:47 | 32.99550 | 132.93170 | 27975 ft | 458 kts | 229° |
| 2026-04-27 12:47 | 32.97222 | 132.90572 | 27969 ft | 458 kts | 229° |
| 2026-04-27 12:47 | 32.94899 | 132.87981 | 27976 ft | 458 kts | 229° |
| 2026-04-27 12:48 | 32.92579 | 132.85394 | 27971 ft | 458 kts | 229° |
| 2026-04-27 12:48 | 32.90254 | 132.82803 | 27979 ft | 458 kts | 229° |
| 2026-04-27 12:48 | 32.87931 | 132.80216 | 27981 ft | 458 kts | 229° |
| 2026-04-27 12:48 | 32.85601 | 132.77623 | 27984 ft | 458 kts | 229° |
| 2026-04-27 12:49 | 32.83271 | 132.75031 | 27981 ft | 460 kts | 229° |
| 2026-04-27 12:49 | 32.80929 | 132.72431 | 27971 ft | 460 kts | 229° |
| 2026-04-27 12:49 | 32.78590 | 132.69836 | 27972 ft | 461 kts | 229° |
| 2026-04-27 12:49 | 32.76241 | 132.67239 | 27978 ft | 460 kts | 229° |
| 2026-04-27 12:50 | 32.73895 | 132.64651 | 27976 ft | 460 kts | 229° |
| 2026-04-27 12:50 | 32.71549 | 132.62064 | 27969 ft | 460 kts | 229° |
| 2026-04-27 12:50 | 32.69203 | 132.59479 | 27980 ft | 460 kts | 229° |
| 2026-04-27 12:50 | 32.66854 | 132.56891 | 27977 ft | 461 kts | 229° |
| 2026-04-27 12:51 | 32.64504 | 132.54304 | 27978 ft | 461 kts | 229° |
| 2026-04-27 12:51 | 32.62152 | 132.51715 | 27980 ft | 461 kts | 229° |
| 2026-04-27 12:51 | 32.59793 | 132.49121 | 27982 ft | 462 kts | 229° |
| 2026-04-27 12:51 | 32.57436 | 132.46531 | 27993 ft | 462 kts | 229° |
| 2026-04-27 12:52 | 32.55105 | 132.43972 | 27977 ft | 463 kts | 229° |
| 2026-04-27 12:52 | 32.52741 | 132.41378 | 27990 ft | 464 kts | 229° |
| 2026-04-27 12:52 | 32.50370 | 132.38779 | 27988 ft | 464 kts | 229° |
| 2026-04-27 12:52 | 32.47998 | 132.36180 | 27983 ft | 464 kts | 229° |
| 2026-04-27 12:53 | 32.43253 | 132.30986 | 27986 ft | 465 kts | 229° |
| 2026-04-27 12:53 | 32.40872 | 132.28384 | 27987 ft | 465 kts | 229° |
| 2026-04-27 12:53 | 32.38556 | 132.25743 | 27980 ft | 456 kts | 232° |
| 2026-04-27 12:54 | 32.36529 | 132.23003 | 27948 ft | 431 kts | 236° |
| 2026-04-27 12:54 | 32.34749 | 132.20264 | 27813 ft | 411 kts | 239° |
| 2026-04-27 12:54 | 32.33216 | 132.17470 | 27353 ft | 400 kts | 243° |
| 2026-04-27 12:54 | 32.31787 | 132.14683 | 26828 ft | 393 kts | 243° |
| 2026-04-27 12:55 | 32.30367 | 132.11936 | 26242 ft | 389 kts | 243° |
| 2026-04-27 12:55 | 32.28957 | 132.09221 | 25671 ft | 386 kts | 242° |
| 2026-04-27 12:55 | 32.27554 | 132.06527 | 25103 ft | 383 kts | 242° |
| 2026-04-27 12:55 | 32.26162 | 132.03856 | 24533 ft | 380 kts | 242° |
| 2026-04-27 12:56 | 32.24778 | 132.01204 | 23967 ft | 379 kts | 242° |
| 2026-04-27 12:56 | 32.23399 | 131.98564 | 23388 ft | 377 kts | 241° |
| 2026-04-27 12:56 | 32.22026 | 131.95938 | 22747 ft | 374 kts | 241° |
| 2026-04-27 12:56 | 32.20663 | 131.93334 | 22172 ft | 371 kts | 242° |
| 2026-04-27 12:57 | 32.19317 | 131.90761 | 21616 ft | 368 kts | 242° |
| 2026-04-27 12:57 | 32.17975 | 131.88197 | 21070 ft | 365 kts | 242° |
| 2026-04-27 12:57 | 32.16646 | 131.85661 | 20552 ft | 362 kts | 242° |
| 2026-04-27 12:57 | 32.15326 | 131.83147 | 20035 ft | 359 kts | 242° |
| 2026-04-27 12:58 | 32.14019 | 131.80657 | 19629 ft | 354 kts | 242° |
| 2026-04-27 12:58 | 32.12729 | 131.78205 | 19233 ft | 349 kts | 242° |
| 2026-04-27 12:58 | 32.11456 | 131.75782 | 18842 ft | 346 kts | 242° |
| 2026-04-27 12:58 | 32.10194 | 131.73380 | 18456 ft | 344 kts | 242° |
| 2026-04-27 12:59 | 32.08932 | 131.70978 | 18017 ft | 344 kts | 242° |
| 2026-04-27 12:59 | 32.07676 | 131.68589 | 17611 ft | 343 kts | 242° |
| 2026-04-27 12:59 | 32.06421 | 131.66203 | 17208 ft | 341 kts | 242° |
| 2026-04-27 12:59 | 32.05171 | 131.63830 | 16826 ft | 340 kts | 242° |
| 2026-04-27 13:00 | 32.03940 | 131.61493 | 16451 ft | 339 kts | 241° |
| 2026-04-27 13:00 | 32.02696 | 131.59133 | 16069 ft | 339 kts | 241° |
| 2026-04-27 13:00 | 32.01467 | 131.56806 | 15686 ft | 335 kts | 241° |
| 2026-04-27 13:00 | 32.00224 | 131.54449 | 15322 ft | 342 kts | 241° |
| 2026-04-27 13:01 | 31.98963 | 131.52060 | 14929 ft | 344 kts | 240° |
| 2026-04-27 13:01 | 31.97696 | 131.49663 | 14538 ft | 344 kts | 240° |
| 2026-04-27 13:01 | 31.96440 | 131.47291 | 14146 ft | 337 kts | 240° |
| 2026-04-27 13:01 | 31.95218 | 131.44986 | 13736 ft | 329 kts | 240° |
| 2026-04-27 13:02 | 31.94006 | 131.42700 | 13312 ft | 331 kts | 240° |
| 2026-04-27 13:02 | 31.92779 | 131.40396 | 12927 ft | 333 kts | 240° |
| 2026-04-27 13:02 | 31.91542 | 131.38079 | 12540 ft | 334 kts | 240° |
| 2026-04-27 13:02 | 31.90304 | 131.35763 | 12159 ft | 334 kts | 240° |
| 2026-04-27 13:03 | 31.89071 | 131.33457 | 11789 ft | 332 kts | 240° |
| 2026-04-27 13:03 | 31.87856 | 131.31185 | 11425 ft | 322 kts | 240° |
| 2026-04-27 13:03 | 31.86688 | 131.29003 | 11058 ft | 307 kts | 240° |
| 2026-04-27 13:03 | 31.85581 | 131.26937 | 10711 ft | 291 kts | 240° |
| 2026-04-27 13:04 | 31.84528 | 131.24970 | 10390 ft | 278 kts | 240° |
| 2026-04-27 13:04 | 31.83521 | 131.23091 | 10087 ft | 265 kts | 240° |
| 2026-04-27 13:04 | 31.82555 | 131.21284 | 9774 ft | 257 kts | 240° |
| 2026-04-27 13:04 | 31.81590 | 131.19482 | 9483 ft | 264 kts | 240° |
| 2026-04-27 13:05 | 31.80600 | 131.17631 | 9195 ft | 270 kts | 239° |
| 2026-04-27 13:05 | 31.79615 | 131.15791 | 8878 ft | 262 kts | 239° |
| 2026-04-27 13:05 | 31.78655 | 131.14002 | 8575 ft | 257 kts | 239° |
| 2026-04-27 13:05 | 31.77690 | 131.12205 | 8300 ft | 264 kts | 239° |
| 2026-04-27 13:06 | 31.76713 | 131.10387 | 8053 ft | 258 kts | 239° |
| 2026-04-27 13:06 | 31.75780 | 131.08652 | 7594 ft | 250 kts | 239° |
| 2026-04-27 13:06 | 31.74975 | 131.07156 | 7448 ft | 234 kts | 238° |
| 2026-04-27 13:06 | 31.74105 | 131.05537 | 7241 ft | 239 kts | 238° |
| 2026-04-27 13:07 | 31.73211 | 131.03870 | 6946 ft | 244 kts | 238° |
| 2026-04-27 13:07 | 31.72283 | 131.02142 | 6357 ft | 253 kts | 238° |
| 2026-04-27 13:07 | 31.71354 | 131.00410 | 5972 ft | 248 kts | 238° |
| 2026-04-27 13:07 | 31.70442 | 130.98715 | 5640 ft | 242 kts | 238° |
| 2026-04-27 13:08 | 31.69560 | 130.97074 | 5349 ft | 233 kts | 238° |
| 2026-04-27 13:08 | 31.68710 | 130.95495 | 5078 ft | 224 kts | 237° |
| 2026-04-27 13:08 | 31.67897 | 130.93986 | 4854 ft | 212 kts | 237° |
| 2026-04-27 13:08 | 31.67132 | 130.92557 | 4602 ft | 202 kts | 240° |
| 2026-04-27 13:09 | 31.66691 | 130.91036 | 4354 ft | 193 kts | 258° |
| 2026-04-27 13:09 | 31.66427 | 130.89507 | 4154 ft | 191 kts | 258° |
| 2026-04-27 13:09 | 31.66152 | 130.87984 | 3910 ft | 191 kts | 258° |
| 2026-04-27 13:09 | 31.65967 | 130.86455 | 3685 ft | 189 kts | 277° |
| 2026-04-27 13:10 | 31.66354 | 130.85006 | 3499 ft | 184 kts | 289° |
| 2026-04-27 13:10 | 31.66789 | 130.83573 | 3279 ft | 187 kts | 290° |
| 2026-04-27 13:10 | 31.67229 | 130.82126 | 3035 ft | 188 kts | 290° |
| 2026-04-27 13:10 | 31.67878 | 130.80831 | 2796 ft | 182 kts | 320° |
| 2026-04-27 13:11 | 31.68860 | 130.79984 | 2770 ft | 181 kts | 324° |
| 2026-04-27 13:11 | 31.69901 | 130.79067 | 2662 ft | 187 kts | 325° |
| 2026-04-27 13:11 | 31.70944 | 130.78298 | 2636 ft | 173 kts | 329° |
| 2026-04-27 13:11 | 31.71956 | 130.77613 | 2538 ft | 165 kts | 330° |
| 2026-04-27 13:12 | 31.72947 | 130.76945 | 2313 ft | 158 kts | 329° |
| 2026-04-27 13:12 | 31.73866 | 130.76320 | 2111 ft | 147 kts | 330° |
| 2026-04-27 13:12 | 31.74734 | 130.75735 | 1932 ft | 143 kts | 329° |
| 2026-04-27 13:12 | 31.75609 | 130.75144 | 1737 ft | 145 kts | 329° |
| 2026-04-27 13:13 | 31.76060 | 130.74838 | 1635 ft | 145 kts | 329° |
| 2026-04-27 13:13 | 31.76897 | 130.74269 | 1434 ft | 143 kts | 329° |
| 2026-04-27 13:13 | 31.77757 | 130.73686 | 1227 ft | 143 kts | 329° |
| 2026-04-27 13:13 | 31.78625 | 130.73107 | 1071 ft | 145 kts | 329° |
| 2026-04-27 13:14 | 31.79482 | 130.72522 | 908 ft | 142 kts | 329° |
| 2026-04-27 13:14 | 31.80237 | 130.72007 | 907 ft | 98 kts | 330° |
| 2026-04-27 13:14 | 31.80671 | 130.71715 | 907 ft | 45 kts | 330° |
| 2026-04-27 13:14 | 31.80814 | 130.71566 | 905 ft | 13 kts | 304° |
| 2026-04-27 13:15 | 31.80849 | 130.71481 | 901 ft | 13 kts | 280° |
| 2026-04-27 13:15 | 31.80798 | 130.71412 | 897 ft | 12 kts | 178° |
| 2026-04-27 13:15 | 31.80718 | 130.71455 | 896 ft | 13 kts | 152° |
| 2026-04-27 13:15 | 31.80640 | 130.71506 | 896 ft | 13 kts | 150° |
| 2026-04-27 13:16 | 31.80562 | 130.71557 | 896 ft | 13 kts | 150° |
| 2026-04-27 13:16 | 31.80479 | 130.71612 | 896 ft | 14 kts | 151° |
| 2026-04-27 13:16 | 31.80392 | 130.71669 | 896 ft | 14 kts | 150° |
| 2026-04-27 13:16 | 31.80316 | 130.71722 | 897 ft | 8 kts | 149° |
| 2026-04-27 13:17 | 31.80270 | 130.71727 | 896 ft | 7 kts | 212° |
| 2026-04-27 13:17 | 31.80237 | 130.71673 | 895 ft | 9 kts | 241° |
| 2026-04-27 13:17 | 31.80219 | 130.71638 | 895 ft | 0 kts | 240° |